sensor_id;sensor_type;location;lat;lon;timestamp;P1;durP1;ratioP1;P2;durP2;ratioP2
13102;SDS011;52970;46.752;17.108;2022-12-08T00:02:06;11.43;;;9.30;;
13102;SDS011;52970;46.752;17.108;2022-12-08T00:04:31;10.63;;;8.67;;
13102;SDS011;52970;46.752;17.108;2022-12-08T00:07:17;10.80;;;8.90;;
13102;SDS011;52970;46.752;17.108;2022-12-08T00:10:00;10.43;;;8.70;;
13102;SDS011;52970;46.752;17.108;2022-12-08T00:12:26;9.63;;;8.00;;
13102;SDS011;52970;46.752;17.108;2022-12-08T00:14:51;9.80;;;8.60;;
13102;SDS011;52970;46.752;17.108;2022-12-08T00:17:18;10.13;;;8.03;;
13102;SDS011;52970;46.752;17.108;2022-12-08T00:19:43;10.53;;;8.53;;
13102;SDS011;52970;46.752;17.108;2022-12-08T00:22:09;9.73;;;8.10;;
13102;SDS011;52970;46.752;17.108;2022-12-08T00:24:36;9.83;;;7.63;;
13102;SDS011;52970;46.752;17.108;2022-12-08T00:27:04;9.23;;;8.10;;
13102;SDS011;52970;46.752;17.108;2022-12-08T00:29:30;9.23;;;7.80;;
13102;SDS011;52970;46.752;17.108;2022-12-08T00:31:55;9.40;;;8.17;;
13102;SDS011;52970;46.752;17.108;2022-12-08T00:34:21;9.00;;;7.87;;
13102;SDS011;52970;46.752;17.108;2022-12-08T00:36:46;9.50;;;8.30;;
13102;SDS011;52970;46.752;17.108;2022-12-08T00:39:12;8.57;;;7.67;;
13102;SDS011;52970;46.752;17.108;2022-12-08T00:41:37;9.50;;;8.27;;
13102;SDS011;52970;46.752;17.108;2022-12-08T00:44:21;9.77;;;7.80;;
13102;SDS011;52970;46.752;17.108;2022-12-08T00:46:46;9.03;;;8.07;;
13102;SDS011;52970;46.752;17.108;2022-12-08T00:49:12;9.27;;;8.20;;
13102;SDS011;52970;46.752;17.108;2022-12-08T00:51:38;9.30;;;7.70;;
13102;SDS011;52970;46.752;17.108;2022-12-08T00:54:03;12.20;;;9.73;;
13102;SDS011;52970;46.752;17.108;2022-12-08T00:56:29;14.57;;;10.70;;
13102;SDS011;52970;46.752;17.108;2022-12-08T00:58:54;14.53;;;10.53;;
13102;SDS011;52970;46.752;17.108;2022-12-08T01:01:20;14.87;;;10.53;;
13102;SDS011;52970;46.752;17.108;2022-12-08T01:03:45;13.90;;;10.73;;
13102;SDS011;52970;46.752;17.108;2022-12-08T01:06:10;15.43;;;11.47;;
13102;SDS011;52970;46.752;17.108;2022-12-08T01:08:36;13.97;;;10.50;;
13102;SDS011;52970;46.752;17.108;2022-12-08T01:11:05;14.67;;;10.67;;
13102;SDS011;52970;46.752;17.108;2022-12-08T01:13:30;12.70;;;9.77;;
13102;SDS011;52970;46.752;17.108;2022-12-08T01:15:55;16.33;;;11.87;;
13102;SDS011;52970;46.752;17.108;2022-12-08T01:18:21;19.53;;;13.33;;
13102;SDS011;52970;46.752;17.108;2022-12-08T01:20:46;14.90;;;11.17;;
13102;SDS011;52970;46.752;17.108;2022-12-08T01:23:11;18.80;;;13.37;;
13102;SDS011;52970;46.752;17.108;2022-12-08T01:25:36;17.97;;;12.63;;
13102;SDS011;52970;46.752;17.108;2022-12-08T01:28:02;17.60;;;12.13;;
13102;SDS011;52970;46.752;17.108;2022-12-08T01:30:27;18.13;;;12.27;;
13102;SDS011;52970;46.752;17.108;2022-12-08T01:32:53;20.30;;;12.30;;
13102;SDS011;52970;46.752;17.108;2022-12-08T01:35:18;25.13;;;13.63;;
13102;SDS011;52970;46.752;17.108;2022-12-08T01:37:44;27.87;;;13.70;;
13102;SDS011;52970;46.752;17.108;2022-12-08T01:40:09;22.10;;;12.67;;
13102;SDS011;52970;46.752;17.108;2022-12-08T01:42:34;21.60;;;13.00;;
13102;SDS011;52970;46.752;17.108;2022-12-08T01:45:21;19.77;;;13.00;;
13102;SDS011;52970;46.752;17.108;2022-12-08T01:47:48;21.60;;;13.33;;
13102;SDS011;52970;46.752;17.108;2022-12-08T01:50:15;21.57;;;13.77;;
13102;SDS011;52970;46.752;17.108;2022-12-08T01:52:45;19.00;;;12.90;;
13102;SDS011;52970;46.752;17.108;2022-12-08T01:57:39;20.27;;;12.93;;
13102;SDS011;52970;46.752;17.108;2022-12-08T02:00:09;19.83;;;13.23;;
13102;SDS011;52970;46.752;17.108;2022-12-08T02:02:38;20.40;;;12.80;;
13102;SDS011;52970;46.752;17.108;2022-12-08T02:05:04;20.37;;;11.80;;
13102;SDS011;52970;46.752;17.108;2022-12-08T02:07:29;17.17;;;12.13;;
13102;SDS011;52970;46.752;17.108;2022-12-08T02:09:55;16.07;;;12.13;;
13102;SDS011;52970;46.752;17.108;2022-12-08T02:12:21;18.13;;;12.00;;
13102;SDS011;52970;46.752;17.108;2022-12-08T02:14:46;16.83;;;11.93;;
13102;SDS011;52970;46.752;17.108;2022-12-08T02:22:20;19.20;;;12.73;;
13102;SDS011;52970;46.752;17.108;2022-12-08T02:35:09;15.87;;;11.00;;
13102;SDS011;52970;46.752;17.108;2022-12-08T02:37:49;16.37;;;12.17;;
13102;SDS011;52970;46.752;17.108;2022-12-08T02:40:23;14.13;;;10.33;;
13102;SDS011;52970;46.752;17.108;2022-12-08T02:42:55;16.70;;;11.17;;
13102;SDS011;52970;46.752;17.108;2022-12-08T02:45:27;16.20;;;11.13;;
13102;SDS011;52970;46.752;17.108;2022-12-08T02:47:56;16.50;;;11.13;;
13102;SDS011;52970;46.752;17.108;2022-12-08T02:50:21;14.90;;;10.73;;
13102;SDS011;52970;46.752;17.108;2022-12-08T02:52:47;14.73;;;10.40;;
13102;SDS011;52970;46.752;17.108;2022-12-08T03:00:22;16.80;;;11.33;;
13102;SDS011;52970;46.752;17.108;2022-12-08T03:03:08;16.63;;;12.37;;
13102;SDS011;52970;46.752;17.108;2022-12-08T03:10:50;18.53;;;12.43;;
13102;SDS011;52970;46.752;17.108;2022-12-08T03:13:21;17.93;;;11.57;;
13102;SDS011;52970;46.752;17.108;2022-12-08T03:15:49;16.10;;;11.50;;
13102;SDS011;52970;46.752;17.108;2022-12-08T03:18:15;16.63;;;11.70;;
13102;SDS011;52970;46.752;17.108;2022-12-08T03:20:41;16.20;;;11.50;;
13102;SDS011;52970;46.752;17.108;2022-12-08T03:23:08;16.43;;;12.17;;
13102;SDS011;52970;46.752;17.108;2022-12-08T03:25:36;15.67;;;11.17;;
13102;SDS011;52970;46.752;17.108;2022-12-08T03:28:03;19.60;;;12.80;;
13102;SDS011;52970;46.752;17.108;2022-12-08T03:30:29;18.03;;;12.67;;
13102;SDS011;52970;46.752;17.108;2022-12-08T03:35:22;17.67;;;11.90;;
13102;SDS011;52970;46.752;17.108;2022-12-08T03:37:48;17.80;;;11.83;;
13102;SDS011;52970;46.752;17.108;2022-12-08T03:40:15;21.20;;;13.50;;
13102;SDS011;52970;46.752;17.108;2022-12-08T03:42:41;18.30;;;12.23;;
13102;SDS011;52970;46.752;17.108;2022-12-08T03:45:08;19.23;;;13.13;;
13102;SDS011;52970;46.752;17.108;2022-12-08T03:47:33;16.30;;;11.70;;
13102;SDS011;52970;46.752;17.108;2022-12-08T03:49:58;19.50;;;12.33;;
13102;SDS011;52970;46.752;17.108;2022-12-08T03:52:24;17.87;;;12.17;;
13102;SDS011;52970;46.752;17.108;2022-12-08T03:54:49;18.20;;;12.03;;
13102;SDS011;52970;46.752;17.108;2022-12-08T03:57:14;17.53;;;12.57;;
13102;SDS011;52970;46.752;17.108;2022-12-08T03:59:40;19.83;;;12.73;;
13102;SDS011;52970;46.752;17.108;2022-12-08T04:02:05;20.27;;;12.93;;
13102;SDS011;52970;46.752;17.108;2022-12-08T04:04:30;18.73;;;12.43;;
13102;SDS011;52970;46.752;17.108;2022-12-08T04:06:56;21.00;;;13.73;;
13102;SDS011;52970;46.752;17.108;2022-12-08T04:09:21;19.03;;;12.87;;
13102;SDS011;52970;46.752;17.108;2022-12-08T04:11:46;22.93;;;14.80;;
13102;SDS011;52970;46.752;17.108;2022-12-08T04:14:11;20.60;;;14.63;;
13102;SDS011;52970;46.752;17.108;2022-12-08T04:16:37;19.07;;;12.83;;
13102;SDS011;52970;46.752;17.108;2022-12-08T04:19:02;27.00;;;17.83;;
13102;SDS011;52970;46.752;17.108;2022-12-08T04:21:27;19.00;;;13.00;;
13102;SDS011;52970;46.752;17.108;2022-12-08T04:23:52;20.07;;;15.00;;
13102;SDS011;52970;46.752;17.108;2022-12-08T04:26:19;17.43;;;12.77;;
13102;SDS011;52970;46.752;17.108;2022-12-08T04:28:44;18.93;;;13.03;;
13102;SDS011;52970;46.752;17.108;2022-12-08T04:31:09;16.60;;;12.43;;
13102;SDS011;52970;46.752;17.108;2022-12-08T04:33:35;19.77;;;13.33;;
13102;SDS011;52970;46.752;17.108;2022-12-08T04:36:01;19.97;;;13.77;;
13102;SDS011;52970;46.752;17.108;2022-12-08T04:38:27;17.97;;;12.93;;
13102;SDS011;52970;46.752;17.108;2022-12-08T04:40:52;16.53;;;12.73;;
13102;SDS011;52970;46.752;17.108;2022-12-08T04:43:17;16.43;;;12.13;;
13102;SDS011;52970;46.752;17.108;2022-12-08T04:45:43;17.70;;;12.80;;
13102;SDS011;52970;46.752;17.108;2022-12-08T04:48:08;16.93;;;12.50;;
13102;SDS011;52970;46.752;17.108;2022-12-08T04:50:34;16.93;;;11.80;;
13102;SDS011;52970;46.752;17.108;2022-12-08T04:52:59;17.03;;;11.77;;
13102;SDS011;52970;46.752;17.108;2022-12-08T04:55:24;16.57;;;11.17;;
13102;SDS011;52970;46.752;17.108;2022-12-08T04:57:49;17.57;;;12.53;;
13102;SDS011;52970;46.752;17.108;2022-12-08T05:00:15;16.80;;;11.70;;
13102;SDS011;52970;46.752;17.108;2022-12-08T05:02:40;20.30;;;14.57;;
13102;SDS011;52970;46.752;17.108;2022-12-08T05:05:06;22.07;;;17.07;;
13102;SDS011;52970;46.752;17.108;2022-12-08T05:07:31;18.57;;;13.47;;
13102;SDS011;52970;46.752;17.108;2022-12-08T05:09:57;18.50;;;13.90;;
13102;SDS011;52970;46.752;17.108;2022-12-08T05:12:22;16.77;;;12.20;;
13102;SDS011;52970;46.752;17.108;2022-12-08T05:14:47;17.03;;;12.27;;
13102;SDS011;52970;46.752;17.108;2022-12-08T05:17:15;23.03;;;16.03;;
13102;SDS011;52970;46.752;17.108;2022-12-08T05:19:41;46.13;;;25.30;;
13102;SDS011;52970;46.752;17.108;2022-12-08T05:22:06;30.97;;;19.17;;
13102;SDS011;52970;46.752;17.108;2022-12-08T05:24:31;30.23;;;19.70;;
13102;SDS011;52970;46.752;17.108;2022-12-08T05:26:57;23.10;;;15.00;;
13102;SDS011;52970;46.752;17.108;2022-12-08T05:29:22;21.03;;;14.10;;
13102;SDS011;52970;46.752;17.108;2022-12-08T05:31:47;23.60;;;16.03;;
13102;SDS011;52970;46.752;17.108;2022-12-08T05:34:12;25.27;;;17.00;;
13102;SDS011;52970;46.752;17.108;2022-12-08T05:36:38;39.37;;;27.50;;
13102;SDS011;52970;46.752;17.108;2022-12-08T05:39:03;40.07;;;28.97;;
13102;SDS011;52970;46.752;17.108;2022-12-08T05:41:28;29.20;;;21.90;;
13102;SDS011;52970;46.752;17.108;2022-12-08T05:43:53;20.47;;;15.13;;
13102;SDS011;52970;46.752;17.108;2022-12-08T05:46:19;28.97;;;21.27;;
13102;SDS011;52970;46.752;17.108;2022-12-08T05:48:44;28.43;;;21.50;;
13102;SDS011;52970;46.752;17.108;2022-12-08T05:51:16;25.70;;;18.83;;
13102;SDS011;52970;46.752;17.108;2022-12-08T05:53:45;20.17;;;15.97;;
13102;SDS011;52970;46.752;17.108;2022-12-08T05:56:10;17.37;;;13.13;;
13102;SDS011;52970;46.752;17.108;2022-12-08T05:58:35;18.67;;;14.77;;
13102;SDS011;52970;46.752;17.108;2022-12-08T06:01:01;36.40;;;22.80;;
13102;SDS011;52970;46.752;17.108;2022-12-08T06:03:27;20.17;;;15.70;;
13102;SDS011;52970;46.752;17.108;2022-12-08T06:05:52;21.13;;;15.47;;
13102;SDS011;52970;46.752;17.108;2022-12-08T06:08:17;17.93;;;13.30;;
13102;SDS011;52970;46.752;17.108;2022-12-08T06:10:43;18.47;;;13.97;;
13102;SDS011;52970;46.752;17.108;2022-12-08T06:13:08;20.50;;;13.97;;
13102;SDS011;52970;46.752;17.108;2022-12-08T06:15:34;18.67;;;13.10;;
13102;SDS011;52970;46.752;17.108;2022-12-08T06:18:00;18.53;;;13.07;;
13102;SDS011;52970;46.752;17.108;2022-12-08T06:20:25;19.13;;;12.97;;
13102;SDS011;52970;46.752;17.108;2022-12-08T06:22:50;20.90;;;14.43;;
13102;SDS011;52970;46.752;17.108;2022-12-08T06:25:15;23.50;;;14.90;;
13102;SDS011;52970;46.752;17.108;2022-12-08T06:27:41;21.57;;;14.00;;
13102;SDS011;52970;46.752;17.108;2022-12-08T06:30:06;19.40;;;13.93;;
13102;SDS011;52970;46.752;17.108;2022-12-08T06:32:31;21.20;;;13.90;;
13102;SDS011;52970;46.752;17.108;2022-12-08T06:34:57;25.67;;;15.27;;
13102;SDS011;52970;46.752;17.108;2022-12-08T06:37:22;22.83;;;14.87;;
13102;SDS011;52970;46.752;17.108;2022-12-08T06:39:47;26.47;;;16.80;;
13102;SDS011;52970;46.752;17.108;2022-12-08T06:42:12;25.80;;;16.73;;
13102;SDS011;52970;46.752;17.108;2022-12-08T06:44:56;25.27;;;16.60;;
13102;SDS011;52970;46.752;17.108;2022-12-08T06:47:22;20.97;;;14.70;;
13102;SDS011;52970;46.752;17.108;2022-12-08T06:49:47;27.10;;;17.23;;
13102;SDS011;52970;46.752;17.108;2022-12-08T06:52:13;21.90;;;14.83;;
13102;SDS011;52970;46.752;17.108;2022-12-08T06:54:38;25.73;;;16.90;;
13102;SDS011;52970;46.752;17.108;2022-12-08T06:57:03;27.87;;;16.67;;
13102;SDS011;52970;46.752;17.108;2022-12-08T06:59:29;26.73;;;16.90;;
13102;SDS011;52970;46.752;17.108;2022-12-08T07:01:54;30.77;;;19.50;;
13102;SDS011;52970;46.752;17.108;2022-12-08T07:04:19;31.40;;;19.53;;
13102;SDS011;52970;46.752;17.108;2022-12-08T07:06:45;32.20;;;18.97;;
13102;SDS011;52970;46.752;17.108;2022-12-08T07:09:10;29.97;;;18.40;;
13102;SDS011;52970;46.752;17.108;2022-12-08T07:11:36;30.13;;;18.23;;
13102;SDS011;52970;46.752;17.108;2022-12-08T07:14:02;31.60;;;19.83;;
13102;SDS011;52970;46.752;17.108;2022-12-08T07:16:27;31.67;;;20.20;;
13102;SDS011;52970;46.752;17.108;2022-12-08T07:18:52;35.17;;;20.27;;
13102;SDS011;52970;46.752;17.108;2022-12-08T07:21:17;30.87;;;19.63;;
13102;SDS011;52970;46.752;17.108;2022-12-08T07:23:46;29.20;;;18.83;;
13102;SDS011;52970;46.752;17.108;2022-12-08T07:26:12;35.53;;;20.67;;
13102;SDS011;52970;46.752;17.108;2022-12-08T07:28:39;33.03;;;19.47;;
13102;SDS011;52970;46.752;17.108;2022-12-08T07:31:05;31.67;;;18.83;;
13102;SDS011;52970;46.752;17.108;2022-12-08T07:33:30;31.73;;;19.50;;
13102;SDS011;52970;46.752;17.108;2022-12-08T07:36:00;29.90;;;18.57;;
13102;SDS011;52970;46.752;17.108;2022-12-08T07:38:26;33.80;;;20.57;;
13102;SDS011;52970;46.752;17.108;2022-12-08T07:40:52;29.73;;;18.77;;
13102;SDS011;52970;46.752;17.108;2022-12-08T07:43:17;27.77;;;18.83;;
13102;SDS011;52970;46.752;17.108;2022-12-08T07:45:43;34.37;;;21.27;;
13102;SDS011;52970;46.752;17.108;2022-12-08T07:48:08;31.47;;;19.27;;
13102;SDS011;52970;46.752;17.108;2022-12-08T07:50:33;28.10;;;18.23;;
13102;SDS011;52970;46.752;17.108;2022-12-08T07:52:59;25.13;;;17.60;;
13102;SDS011;52970;46.752;17.108;2022-12-08T07:55:24;28.63;;;18.20;;
13102;SDS011;52970;46.752;17.108;2022-12-08T07:57:50;26.90;;;17.60;;
13102;SDS011;52970;46.752;17.108;2022-12-08T08:00:15;26.73;;;18.87;;
13102;SDS011;52970;46.752;17.108;2022-12-08T08:02:41;27.47;;;19.47;;
13102;SDS011;52970;46.752;17.108;2022-12-08T08:05:06;22.97;;;16.80;;
13102;SDS011;52970;46.752;17.108;2022-12-08T08:07:32;28.23;;;20.17;;
13102;SDS011;52970;46.752;17.108;2022-12-08T08:09:57;27.03;;;20.60;;
13102;SDS011;52970;46.752;17.108;2022-12-08T08:12:22;24.37;;;17.30;;
13102;SDS011;52970;46.752;17.108;2022-12-08T08:14:48;24.33;;;17.70;;
13102;SDS011;52970;46.752;17.108;2022-12-08T08:17:13;24.97;;;18.13;;
13102;SDS011;52970;46.752;17.108;2022-12-08T08:19:38;22.63;;;16.60;;
13102;SDS011;52970;46.752;17.108;2022-12-08T08:22:04;22.90;;;16.70;;
13102;SDS011;52970;46.752;17.108;2022-12-08T08:24:29;22.03;;;15.67;;
13102;SDS011;52970;46.752;17.108;2022-12-08T08:26:54;25.30;;;16.10;;
13102;SDS011;52970;46.752;17.108;2022-12-08T08:29:20;22.50;;;16.10;;
13102;SDS011;52970;46.752;17.108;2022-12-08T08:31:45;23.43;;;15.57;;
13102;SDS011;52970;46.752;17.108;2022-12-08T08:34:10;22.70;;;16.00;;
13102;SDS011;52970;46.752;17.108;2022-12-08T08:36:36;22.57;;;15.27;;
13102;SDS011;52970;46.752;17.108;2022-12-08T08:39:02;20.43;;;14.87;;
13102;SDS011;52970;46.752;17.108;2022-12-08T08:41:27;20.90;;;14.93;;
13102;SDS011;52970;46.752;17.108;2022-12-08T08:43:53;21.23;;;15.20;;
13102;SDS011;52970;46.752;17.108;2022-12-08T08:46:18;20.70;;;15.07;;
13102;SDS011;52970;46.752;17.108;2022-12-08T08:48:43;25.20;;;16.93;;
13102;SDS011;52970;46.752;17.108;2022-12-08T08:51:09;24.27;;;17.23;;
13102;SDS011;52970;46.752;17.108;2022-12-08T08:53:35;41.93;;;28.83;;
13102;SDS011;52970;46.752;17.108;2022-12-08T08:56:00;36.40;;;27.03;;
13102;SDS011;52970;46.752;17.108;2022-12-08T08:58:25;25.17;;;18.20;;
13102;SDS011;52970;46.752;17.108;2022-12-08T09:00:51;27.23;;;19.37;;
13102;SDS011;52970;46.752;17.108;2022-12-08T09:03:16;29.07;;;20.27;;
13102;SDS011;52970;46.752;17.108;2022-12-08T09:05:42;25.27;;;18.50;;
13102;SDS011;52970;46.752;17.108;2022-12-08T09:08:08;21.50;;;16.83;;
13102;SDS011;52970;46.752;17.108;2022-12-08T09:10:33;22.03;;;16.30;;
13102;SDS011;52970;46.752;17.108;2022-12-08T09:12:58;20.63;;;14.40;;
13102;SDS011;52970;46.752;17.108;2022-12-08T09:15:23;18.90;;;14.50;;
13102;SDS011;52970;46.752;17.108;2022-12-08T09:17:49;17.87;;;13.67;;
13102;SDS011;52970;46.752;17.108;2022-12-08T09:20:14;18.63;;;13.43;;
13102;SDS011;52970;46.752;17.108;2022-12-08T09:22:39;19.43;;;13.97;;
13102;SDS011;52970;46.752;17.108;2022-12-08T09:25:05;18.87;;;13.57;;
13102;SDS011;52970;46.752;17.108;2022-12-08T09:27:30;17.87;;;12.90;;
13102;SDS011;52970;46.752;17.108;2022-12-08T09:29:55;17.23;;;13.13;;
13102;SDS011;52970;46.752;17.108;2022-12-08T09:32:21;16.00;;;11.90;;
13102;SDS011;52970;46.752;17.108;2022-12-08T09:34:46;16.50;;;12.60;;
13102;SDS011;52970;46.752;17.108;2022-12-08T09:37:12;18.20;;;13.03;;
13102;SDS011;52970;46.752;17.108;2022-12-08T09:39:37;16.20;;;12.93;;
13102;SDS011;52970;46.752;17.108;2022-12-08T09:42:03;15.53;;;12.77;;
13102;SDS011;52970;46.752;17.108;2022-12-08T09:47:12;16.97;;;13.17;;
13102;SDS011;52970;46.752;17.108;2022-12-08T09:52:51;18.47;;;13.63;;
13102;SDS011;52970;46.752;17.108;2022-12-08T09:55:20;16.70;;;12.53;;
13102;SDS011;52970;46.752;17.108;2022-12-08T09:57:48;18.23;;;13.63;;
13102;SDS011;52970;46.752;17.108;2022-12-08T10:00:15;16.10;;;12.30;;
13102;SDS011;52970;46.752;17.108;2022-12-08T10:02:42;17.33;;;13.17;;
13102;SDS011;52970;46.752;17.108;2022-12-08T10:05:12;17.47;;;13.33;;
13102;SDS011;52970;46.752;17.108;2022-12-08T10:17:54;17.93;;;13.43;;
13102;SDS011;52970;46.752;17.108;2022-12-08T10:20:24;16.97;;;13.07;;
13102;SDS011;52970;46.752;17.108;2022-12-08T10:22:55;19.47;;;13.20;;
13102;SDS011;52970;46.752;17.108;2022-12-08T10:25:44;18.37;;;13.20;;
13102;SDS011;52970;46.752;17.108;2022-12-08T10:28:08;17.80;;;13.33;;
13102;SDS011;52970;46.752;17.108;2022-12-08T10:30:34;19.93;;;16.03;;
13102;SDS011;52970;46.752;17.108;2022-12-08T10:32:59;22.83;;;16.43;;
13102;SDS011;52970;46.752;17.108;2022-12-08T10:35:24;19.70;;;14.53;;
13102;SDS011;52970;46.752;17.108;2022-12-08T10:38:08;18.07;;;13.77;;
13102;SDS011;52970;46.752;17.108;2022-12-08T10:40:39;17.43;;;13.33;;
13102;SDS011;52970;46.752;17.108;2022-12-08T10:43:04;17.17;;;13.67;;
13102;SDS011;52970;46.752;17.108;2022-12-08T10:45:32;15.07;;;12.57;;
13102;SDS011;52970;46.752;17.108;2022-12-08T10:48:05;18.93;;;14.77;;
13102;SDS011;52970;46.752;17.108;2022-12-08T10:50:44;30.53;;;20.53;;
13102;SDS011;52970;46.752;17.108;2022-12-08T10:53:14;27.13;;;18.53;;
13102;SDS011;52970;46.752;17.108;2022-12-08T10:55:48;25.63;;;17.63;;
13102;SDS011;52970;46.752;17.108;2022-12-08T11:00:49;19.10;;;13.90;;
13102;SDS011;52970;46.752;17.108;2022-12-08T11:03:21;20.23;;;13.97;;
13102;SDS011;52970;46.752;17.108;2022-12-08T11:05:47;16.73;;;13.50;;
13102;SDS011;52970;46.752;17.108;2022-12-08T11:08:12;19.03;;;14.03;;
13102;SDS011;52970;46.752;17.108;2022-12-08T11:10:43;20.07;;;13.77;;
13102;SDS011;52970;46.752;17.108;2022-12-08T11:16:03;18.00;;;14.17;;
13102;SDS011;52970;46.752;17.108;2022-12-08T11:18:38;18.40;;;14.13;;
13102;SDS011;52970;46.752;17.108;2022-12-08T11:21:09;18.50;;;13.53;;
13102;SDS011;52970;46.752;17.108;2022-12-08T11:23:35;19.73;;;14.23;;
13102;SDS011;52970;46.752;17.108;2022-12-08T11:26:06;17.57;;;13.40;;
13102;SDS011;52970;46.752;17.108;2022-12-08T11:28:34;17.77;;;13.23;;
13102;SDS011;52970;46.752;17.108;2022-12-08T11:31:01;18.00;;;13.80;;
13102;SDS011;52970;46.752;17.108;2022-12-08T11:33:29;21.53;;;15.50;;
13102;SDS011;52970;46.752;17.108;2022-12-08T11:35:59;17.13;;;13.27;;
13102;SDS011;52970;46.752;17.108;2022-12-08T11:38:27;20.50;;;14.83;;
13102;SDS011;52970;46.752;17.108;2022-12-08T11:45:57;19.37;;;14.10;;
13102;SDS011;52970;46.752;17.108;2022-12-08T11:53:40;20.57;;;14.27;;
13102;SDS011;52970;46.752;17.108;2022-12-08T11:56:15;19.33;;;14.03;;
13102;SDS011;52970;46.752;17.108;2022-12-08T11:58:52;17.73;;;14.03;;
13102;SDS011;52970;46.752;17.108;2022-12-08T12:01:21;19.33;;;14.40;;
13102;SDS011;52970;46.752;17.108;2022-12-08T12:08:53;17.63;;;13.47;;
13102;SDS011;52970;46.752;17.108;2022-12-08T12:17:01;18.90;;;13.63;;
13102;SDS011;52970;46.752;17.108;2022-12-08T12:19:28;17.70;;;13.40;;
13102;SDS011;52970;46.752;17.108;2022-12-08T12:21:55;19.03;;;13.27;;
13102;SDS011;52970;46.752;17.108;2022-12-08T12:24:31;16.17;;;12.20;;
13102;SDS011;52970;46.752;17.108;2022-12-08T12:26:59;18.70;;;13.17;;
13102;SDS011;52970;46.752;17.108;2022-12-08T12:29:26;18.07;;;13.20;;
13102;SDS011;52970;46.752;17.108;2022-12-08T12:31:58;18.90;;;12.60;;
13102;SDS011;52970;46.752;17.108;2022-12-08T12:34:29;19.67;;;13.93;;
13102;SDS011;52970;46.752;17.108;2022-12-08T12:39:26;17.50;;;13.20;;
13102;SDS011;52970;46.752;17.108;2022-12-08T12:41:56;18.63;;;13.87;;
13102;SDS011;52970;46.752;17.108;2022-12-08T12:44:24;20.47;;;13.70;;
13102;SDS011;52970;46.752;17.108;2022-12-08T12:51:58;17.60;;;13.07;;
13102;SDS011;52970;46.752;17.108;2022-12-08T12:54:26;18.83;;;13.73;;
13102;SDS011;52970;46.752;17.108;2022-12-08T13:01:58;21.80;;;14.43;;
13102;SDS011;52970;46.752;17.108;2022-12-08T13:04:31;19.97;;;13.20;;
13102;SDS011;52970;46.752;17.108;2022-12-08T13:06:56;18.90;;;14.23;;
13102;SDS011;52970;46.752;17.108;2022-12-08T13:09:26;21.07;;;13.80;;
13102;SDS011;52970;46.752;17.108;2022-12-08T13:11:53;18.53;;;13.57;;
13102;SDS011;52970;46.752;17.108;2022-12-08T13:16:54;19.37;;;13.57;;
13102;SDS011;52970;46.752;17.108;2022-12-08T13:19:20;17.43;;;12.77;;
13102;SDS011;52970;46.752;17.108;2022-12-08T13:21:45;17.37;;;12.87;;
13102;SDS011;52970;46.752;17.108;2022-12-08T13:31:46;18.13;;;13.13;;
13102;SDS011;52970;46.752;17.108;2022-12-08T13:34:14;17.67;;;13.20;;
13102;SDS011;52970;46.752;17.108;2022-12-08T13:36:51;19.37;;;13.77;;
13102;SDS011;52970;46.752;17.108;2022-12-08T13:39:20;17.03;;;13.43;;
13102;SDS011;52970;46.752;17.108;2022-12-08T13:41:51;19.50;;;13.90;;
13102;SDS011;52970;46.752;17.108;2022-12-08T13:44:21;18.57;;;12.63;;
13102;SDS011;52970;46.752;17.108;2022-12-08T13:46:50;18.57;;;12.97;;
13102;SDS011;52970;46.752;17.108;2022-12-08T13:49:16;18.10;;;13.63;;
13102;SDS011;52970;46.752;17.108;2022-12-08T13:51:43;18.03;;;13.70;;
13102;SDS011;52970;46.752;17.108;2022-12-08T13:54:22;17.77;;;12.67;;
13102;SDS011;52970;46.752;17.108;2022-12-08T13:56:48;19.13;;;13.37;;
13102;SDS011;52970;46.752;17.108;2022-12-08T14:01:43;18.73;;;13.30;;
13102;SDS011;52970;46.752;17.108;2022-12-08T14:04:12;17.67;;;12.60;;
13102;SDS011;52970;46.752;17.108;2022-12-08T14:06:39;16.17;;;12.83;;
13102;SDS011;52970;46.752;17.108;2022-12-08T14:09:09;17.37;;;13.20;;
13102;SDS011;52970;46.752;17.108;2022-12-08T14:11:39;15.67;;;11.77;;
13102;SDS011;52970;46.752;17.108;2022-12-08T14:14:11;15.23;;;11.93;;
13102;SDS011;52970;46.752;17.108;2022-12-08T14:16:38;18.30;;;13.10;;
13102;SDS011;52970;46.752;17.108;2022-12-08T14:19:04;18.33;;;12.60;;
13102;SDS011;52970;46.752;17.108;2022-12-08T14:21:30;16.33;;;12.40;;
13102;SDS011;52970;46.752;17.108;2022-12-08T14:23:59;17.40;;;13.23;;
13102;SDS011;52970;46.752;17.108;2022-12-08T14:26:24;17.67;;;13.10;;
13102;SDS011;52970;46.752;17.108;2022-12-08T14:28:50;14.93;;;11.70;;
13102;SDS011;52970;46.752;17.108;2022-12-08T14:31:15;16.90;;;12.10;;
13102;SDS011;52970;46.752;17.108;2022-12-08T14:33:41;16.87;;;12.33;;
13102;SDS011;52970;46.752;17.108;2022-12-08T14:36:07;15.70;;;12.50;;
13102;SDS011;52970;46.752;17.108;2022-12-08T14:38:33;17.33;;;13.63;;
13102;SDS011;52970;46.752;17.108;2022-12-08T14:40:59;16.87;;;12.73;;
13102;SDS011;52970;46.752;17.108;2022-12-08T14:43:26;18.53;;;13.17;;
13102;SDS011;52970;46.752;17.108;2022-12-08T14:45:51;19.70;;;13.60;;
13102;SDS011;52970;46.752;17.108;2022-12-08T14:56:50;18.60;;;13.70;;
13102;SDS011;52970;46.752;17.108;2022-12-08T14:59:06;21.63;;;15.30;;
13102;SDS011;52970;46.752;17.108;2022-12-08T15:01:35;21.00;;;14.80;;
13102;SDS011;52970;46.752;17.108;2022-12-08T15:04:01;24.10;;;16.20;;
13102;SDS011;52970;46.752;17.108;2022-12-08T15:06:30;20.33;;;14.67;;
13102;SDS011;52970;46.752;17.108;2022-12-08T15:08:57;24.13;;;17.13;;
13102;SDS011;52970;46.752;17.108;2022-12-08T15:11:29;27.47;;;18.43;;
13102;SDS011;52970;46.752;17.108;2022-12-08T15:13:54;32.33;;;21.13;;
13102;SDS011;52970;46.752;17.108;2022-12-08T15:16:24;49.37;;;34.37;;
13102;SDS011;52970;46.752;17.108;2022-12-08T15:19:00;33.03;;;24.07;;
13102;SDS011;52970;46.752;17.108;2022-12-08T15:21:27;42.23;;;28.10;;
13102;SDS011;52970;46.752;17.108;2022-12-08T15:23:53;43.07;;;31.20;;
13102;SDS011;52970;46.752;17.108;2022-12-08T15:26:19;41.80;;;28.07;;
13102;SDS011;52970;46.752;17.108;2022-12-08T15:28:45;35.67;;;24.43;;
13102;SDS011;52970;46.752;17.108;2022-12-08T15:31:10;35.17;;;24.00;;
13102;SDS011;52970;46.752;17.108;2022-12-08T15:33:36;36.30;;;23.63;;
13102;SDS011;52970;46.752;17.108;2022-12-08T15:36:01;32.07;;;22.30;;
13102;SDS011;52970;46.752;17.108;2022-12-08T15:38:27;32.93;;;21.63;;
13102;SDS011;52970;46.752;17.108;2022-12-08T15:40:55;29.77;;;19.80;;
13102;SDS011;52970;46.752;17.108;2022-12-08T15:43:22;33.03;;;22.83;;
13102;SDS011;52970;46.752;17.108;2022-12-08T15:45:48;35.07;;;23.33;;
13102;SDS011;52970;46.752;17.108;2022-12-08T15:48:17;33.30;;;23.07;;
13102;SDS011;52970;46.752;17.108;2022-12-08T15:50:43;34.40;;;23.00;;
13102;SDS011;52970;46.752;17.108;2022-12-08T15:53:09;33.87;;;22.43;;
13102;SDS011;52970;46.752;17.108;2022-12-08T15:55:34;35.97;;;24.37;;
13102;SDS011;52970;46.752;17.108;2022-12-08T15:58:00;47.03;;;30.83;;